createdAt,value
2017-08-20T00:00:38.220Z,12.70
2017-08-20T00:03:05.719Z,12.60
2017-08-20T00:05:33.311Z,12.60
2017-08-20T00:08:01.694Z,12.60
2017-08-20T00:10:29.240Z,12.60
2017-08-20T00:12:56.755Z,12.60
2017-08-20T00:15:25.064Z,12.50
2017-08-20T00:17:52.595Z,12.50
2017-08-20T00:20:21.251Z,12.50
2017-08-20T00:22:49.672Z,12.50
2017-08-20T00:25:17.255Z,12.50
2017-08-20T00:27:45.432Z,12.40
2017-08-20T00:30:12.938Z,12.40
2017-08-20T00:32:41.266Z,12.40
2017-08-20T00:35:08.775Z,12.30
2017-08-20T00:37:36.283Z,12.40
2017-08-20T00:40:03.847Z,12.30
2017-08-20T00:42:31.647Z,12.20
2017-08-20T00:45:02.218Z,12.20
2017-08-20T00:47:29.756Z,12.20
2017-08-20T00:49:57.309Z,12.20
2017-08-20T00:52:24.888Z,12.20
2017-08-20T00:54:52.443Z,12.30
2017-08-20T00:57:20.004Z,12.30
2017-08-20T00:59:48.211Z,12.40
2017-08-20T01:02:15.731Z,12.40
2017-08-20T01:04:43.424Z,12.40
2017-08-20T01:07:10.930Z,12.40
2017-08-20T01:09:39.549Z,12.30
2017-08-20T01:12:07.630Z,12.30
2017-08-20T01:14:39.191Z,12.30
2017-08-20T01:17:06.863Z,12.30
2017-08-20T01:19:34.393Z,12.20
2017-08-20T01:22:02.989Z,12.20
2017-08-20T01:24:30.546Z,12.10
2017-08-20T01:26:58.055Z,12.10
2017-08-20T01:29:25.919Z,12.00
2017-08-20T01:31:53.635Z,11.90
2017-08-20T01:34:21.791Z,11.90
2017-08-20T01:36:49.379Z,11.80
2017-08-20T01:39:16.905Z,11.80
2017-08-20T01:41:44.485Z,11.90
2017-08-20T01:44:12.179Z,12.00
2017-08-20T01:46:44.339Z,12.00
2017-08-20T01:49:11.848Z,12.10
2017-08-20T01:51:41.063Z,12.20
2017-08-20T01:54:08.592Z,12.10
2017-08-20T01:56:36.094Z,12.30
2017-08-20T01:59:03.656Z,12.40
2017-08-20T02:01:31.232Z,12.50
2017-08-20T02:03:58.751Z,12.50
2017-08-20T02:06:26.282Z,12.50
2017-08-20T02:08:54.259Z,12.70
2017-08-20T02:11:21.883Z,12.90
2017-08-20T02:13:49.397Z,13.00
2017-08-20T02:16:16.954Z,13.00
2017-08-20T02:18:44.505Z,12.80
2017-08-20T02:21:12.008Z,12.80
2017-08-20T02:23:39.722Z,12.90
2017-08-20T02:26:08.296Z,12.90
2017-08-20T02:28:35.845Z,12.70
2017-08-20T02:31:03.376Z,12.60
2017-08-20T02:33:30.906Z,12.50
2017-08-20T02:35:58.443Z,12.40
2017-08-20T02:38:27.639Z,12.60
2017-08-20T02:40:55.183Z,12.50
2017-08-20T02:43:22.900Z,12.80
2017-08-20T02:45:57.674Z,13.00
2017-08-20T02:48:28.290Z,13.10
2017-08-20T02:50:56.264Z,13.20
2017-08-20T02:53:23.767Z,13.20
2017-08-20T02:55:51.271Z,13.10
2017-08-20T02:58:18.775Z,13.20
2017-08-20T03:00:50.444Z,13.10
2017-08-20T03:03:17.949Z,13.00
2017-08-20T03:05:45.479Z,13.00
2017-08-20T03:08:13.031Z,12.90
2017-08-20T03:10:40.863Z,12.90
2017-08-20T03:13:08.480Z,12.90
2017-08-20T03:15:37.270Z,12.90
2017-08-20T03:18:04.783Z,12.80
2017-08-20T03:20:32.284Z,12.90
2017-08-20T03:22:59.832Z,13.00
2017-08-20T03:25:27.381Z,13.00
2017-08-20T03:27:55.733Z,13.20
2017-08-20T03:30:23.237Z,13.20
2017-08-20T03:32:54.465Z,13.20
2017-08-20T03:35:21.963Z,13.20
2017-08-20T03:37:49.545Z,13.20
2017-08-20T03:40:17.053Z,13.10
2017-08-20T03:42:45.227Z,13.10
2017-08-20T03:45:12.750Z,13.00
2017-08-20T03:47:43.956Z,13.00
2017-08-20T03:50:11.625Z,13.00
2017-08-20T03:52:40.095Z,13.00
2017-08-20T03:55:07.976Z,12.90
2017-08-20T03:57:35.470Z,12.80
2017-08-20T04:00:03.280Z,12.80
2017-08-20T04:02:30.807Z,12.70
2017-08-20T04:04:59.088Z,12.70
2017-08-20T04:07:26.836Z,12.70
2017-08-20T04:09:54.364Z,12.70
2017-08-20T04:12:22.635Z,12.50
2017-08-20T04:14:50.150Z,12.50
2017-08-20T04:17:18.647Z,12.50
2017-08-20T04:19:46.263Z,12.40
2017-08-20T04:22:16.479Z,12.40
2017-08-20T04:24:43.975Z,12.40
2017-08-20T04:27:11.732Z,12.40
2017-08-20T04:29:39.256Z,12.40
2017-08-20T04:32:11.300Z,12.40
2017-08-20T04:34:39.583Z,12.50
2017-08-20T04:37:07.123Z,12.50
2017-08-20T04:39:34.623Z,12.50
2017-08-20T04:42:03.057Z,12.40
2017-08-20T04:44:30.565Z,12.40
2017-08-20T04:46:58.151Z,12.40
2017-08-20T04:49:25.663Z,12.50
2017-08-20T04:51:53.950Z,12.60
2017-08-20T04:54:22.361Z,12.60
2017-08-20T04:56:49.872Z,12.70
2017-08-20T04:59:17.399Z,12.80
2017-08-20T05:01:44.915Z,13.20
2017-08-20T05:04:12.415Z,13.90
2017-08-20T05:06:39.921Z,14.90
2017-08-20T05:09:07.622Z,16.00
2017-08-20T05:11:35.994Z,17.10
2017-08-20T05:14:03.504Z,18.10
2017-08-20T05:16:31.067Z,18.90
2017-08-20T05:19:00.987Z,19.90
2017-08-20T05:21:29.906Z,19.90
2017-08-20T05:23:57.611Z,20.40
2017-08-20T05:26:25.176Z,20.90
2017-08-20T05:28:52.708Z,21.40
2017-08-20T05:31:20.295Z,21.90
2017-08-20T05:33:51.190Z,22.10
2017-08-20T05:36:18.999Z,22.50
2017-08-20T05:38:46.495Z,22.90
2017-08-20T05:41:14.707Z,23.10
2017-08-20T05:43:42.263Z,23.50
2017-08-20T05:46:09.775Z,23.80
2017-08-20T05:48:45.559Z,23.70
2017-08-20T05:51:13.064Z,23.70
2017-08-20T05:53:40.583Z,23.50
2017-08-20T05:56:08.241Z,23.00
2017-08-20T05:58:35.791Z,22.70
2017-08-20T06:01:03.297Z,22.20
2017-08-20T06:03:30.855Z,21.90
2017-08-20T06:05:59.750Z,21.60
2017-08-20T06:08:27.276Z,21.60
2017-08-20T06:10:54.840Z,20.90
2017-08-20T06:13:23.273Z,19.60
2017-08-20T06:15:50.785Z,18.30
2017-08-20T06:18:18.323Z,17.40
2017-08-20T06:20:50.371Z,16.80
2017-08-20T06:23:18.289Z,16.30
2017-08-20T06:25:45.859Z,15.90
2017-08-20T06:28:13.369Z,15.60
2017-08-20T06:30:40.875Z,15.40
2017-08-20T06:33:08.614Z,15.20
2017-08-20T06:35:36.353Z,15.10
2017-08-20T06:38:08.016Z,15.10
2017-08-20T06:40:35.546Z,15.20
2017-08-20T06:43:03.332Z,15.50
2017-08-20T06:45:30.855Z,15.60
2017-08-20T06:47:59.134Z,15.40
2017-08-20T06:50:31.243Z,15.40
2017-08-20T06:52:58.746Z,15.30
2017-08-20T06:55:27.962Z,15.30
2017-08-20T06:57:55.475Z,15.20
2017-08-20T07:00:23.316Z,15.30
2017-08-20T07:02:50.815Z,15.30
2017-08-20T07:05:21.799Z,15.30
2017-08-20T07:07:49.563Z,15.40
2017-08-20T07:10:17.110Z,15.40
2017-08-20T07:12:44.618Z,15.40
2017-08-20T07:15:12.124Z,15.40
2017-08-20T07:17:39.794Z,15.50
2017-08-20T07:20:07.295Z,15.70
2017-08-20T07:22:35.714Z,15.90
2017-08-20T07:25:03.218Z,16.00
2017-08-20T07:27:30.715Z,16.10
2017-08-20T07:29:58.640Z,16.20
2017-08-20T07:32:26.143Z,16.50
2017-08-20T07:34:54.564Z,16.80
2017-08-20T07:37:22.959Z,17.00
2017-08-20T07:39:50.460Z,17.10
2017-08-20T07:42:17.964Z,17.20
2017-08-20T07:44:45.464Z,17.30
2017-08-20T07:47:12.963Z,17.30
2017-08-20T07:49:40.468Z,17.30
2017-08-20T07:52:09.022Z,17.30
2017-08-20T07:54:37.812Z,17.40
2017-08-20T07:57:05.375Z,17.50
2017-08-20T07:59:33.712Z,17.80
2017-08-20T08:02:01.271Z,18.00
2017-08-20T08:04:28.779Z,18.30
2017-08-20T08:06:56.304Z,18.40
2017-08-20T08:09:23.861Z,18.50
2017-08-20T08:11:51.383Z,18.70
2017-08-20T08:14:18.908Z,18.40
2017-08-20T08:16:46.985Z,18.30
2017-08-20T08:19:14.483Z,18.50
2017-08-20T08:21:42.751Z,19.10
2017-08-20T08:24:12.739Z,19.10
2017-08-20T08:26:40.253Z,19.00
2017-08-20T08:29:07.763Z,18.90
2017-08-20T08:31:36.219Z,18.60
2017-08-20T08:34:03.728Z,18.50
2017-08-20T08:36:34.922Z,18.70
2017-08-20T08:39:02.424Z,18.90
2017-08-20T08:41:29.922Z,18.90
2017-08-20T08:43:57.588Z,18.70
2017-08-20T08:46:25.703Z,18.80
2017-08-20T08:48:53.243Z,18.80
2017-08-20T08:51:21.002Z,18.80
2017-08-20T08:53:51.719Z,19.10
2017-08-20T08:56:19.231Z,19.00
2017-08-20T08:58:46.748Z,18.80
2017-08-20T09:01:15.572Z,19.20
2017-08-20T09:03:43.102Z,19.30
2017-08-20T09:06:10.611Z,19.20
2017-08-20T09:08:40.783Z,19.00
2017-08-20T09:11:08.280Z,19.00
2017-08-20T09:13:36.276Z,19.20
2017-08-20T09:16:04.526Z,19.20
2017-08-20T09:18:32.378Z,19.10
2017-08-20T09:20:59.883Z,18.80
2017-08-20T09:23:27.399Z,18.60
2017-08-20T09:25:54.912Z,18.30
2017-08-20T09:28:22.527Z,18.30
2017-08-20T09:30:50.037Z,18.40
2017-08-20T09:33:17.943Z,18.40
2017-08-20T09:35:45.870Z,18.50
2017-08-20T09:38:13.375Z,18.50
2017-08-20T09:40:40.892Z,18.60
2017-08-20T09:43:08.436Z,18.70
2017-08-20T09:45:36.771Z,19.00
2017-08-20T09:48:04.387Z,19.40
2017-08-20T09:50:32.070Z,19.80
2017-08-20T09:53:03.903Z,19.90
2017-08-20T09:55:31.712Z,19.90
2017-08-20T09:58:00.332Z,19.50
2017-08-20T10:00:28.780Z,19.40
2017-08-20T10:02:56.898Z,19.20
2017-08-20T10:05:24.402Z,19.10
2017-08-20T10:07:55.709Z,19.30
2017-08-20T10:10:23.581Z,19.70
2017-08-20T10:12:51.594Z,20.20
2017-08-20T10:15:19.364Z,20.50
2017-08-20T10:17:46.908Z,20.50
2017-08-20T10:20:14.447Z,20.30
2017-08-20T10:22:42.004Z,20.20
2017-08-20T10:25:09.767Z,19.80
2017-08-20T10:27:37.277Z,19.70
2017-08-20T10:30:05.861Z,20.20
2017-08-20T10:32:33.643Z,20.10
2017-08-20T10:35:01.152Z,20.30
2017-08-20T10:37:29.142Z,20.10
2017-08-20T10:39:59.741Z,19.90
2017-08-20T10:42:27.276Z,19.80
2017-08-20T10:44:55.192Z,19.80
2017-08-20T10:47:22.723Z,19.60
2017-08-20T10:49:50.267Z,19.40
2017-08-20T10:52:17.767Z,19.30
2017-08-20T10:54:49.715Z,19.40
2017-08-20T10:57:17.730Z,19.90
2017-08-20T10:59:45.275Z,20.10
2017-08-20T11:02:12.959Z,20.20
2017-08-20T11:04:40.497Z,20.40
2017-08-20T11:07:08.863Z,20.40
2017-08-20T11:09:39.327Z,20.60
2017-08-20T11:12:07.367Z,20.80
2017-08-20T11:14:35.017Z,21.00
2017-08-20T11:17:02.545Z,21.00
2017-08-20T11:19:30.156Z,21.10
2017-08-20T11:21:59.331Z,20.90
2017-08-20T11:24:26.844Z,20.90
2017-08-20T11:26:54.365Z,20.80
2017-08-20T11:29:23.573Z,20.00
2017-08-20T11:31:51.079Z,19.90
2017-08-20T11:34:18.932Z,19.50
2017-08-20T11:36:46.433Z,19.50
2017-08-20T11:39:17.149Z,19.60
2017-08-20T11:41:44.647Z,19.70
2017-08-20T11:44:12.935Z,20.10
2017-08-20T11:46:40.452Z,20.10
2017-08-20T11:49:07.951Z,20.20
2017-08-20T11:51:35.629Z,20.40
2017-08-20T11:54:03.147Z,20.40
2017-08-20T11:56:31.487Z,20.20
2017-08-20T11:58:58.996Z,20.20
2017-08-20T12:01:27.267Z,20.30
2017-08-20T12:03:54.779Z,20.30
2017-08-20T12:06:22.487Z,20.30
2017-08-20T12:08:50.303Z,20.20
2017-08-20T12:11:17.966Z,20.00
2017-08-20T12:13:45.467Z,19.70
2017-08-20T12:16:12.987Z,19.50
2017-08-20T12:18:41.417Z,19.60
2017-08-20T12:21:10.048Z,19.70
2017-08-20T12:23:38.103Z,19.80
2017-08-20T12:26:05.604Z,19.80
2017-08-20T12:28:33.108Z,19.80
2017-08-20T12:31:01.025Z,19.90
2017-08-20T12:33:28.936Z,20.00
2017-08-20T12:35:56.435Z,20.20
2017-08-20T12:38:24.086Z,20.10
2017-08-20T12:40:51.604Z,20.00
2017-08-20T12:43:19.131Z,19.80
2017-08-20T12:45:47.653Z,19.80
2017-08-20T12:48:15.164Z,20.00
2017-08-20T12:50:42.795Z,20.10
2017-08-20T12:53:10.608Z,20.40
2017-08-20T12:55:41.600Z,20.80
2017-08-20T12:58:09.103Z,20.80
2017-08-20T13:00:37.903Z,20.80
2017-08-20T13:03:05.486Z,20.80
2017-08-20T13:05:33.002Z,20.70
2017-08-20T13:08:00.542Z,20.60
2017-08-20T13:10:28.046Z,20.50
2017-08-20T13:12:55.689Z,20.50
2017-08-20T13:15:23.209Z,20.40
2017-08-20T13:17:51.212Z,20.30
2017-08-20T13:20:19.099Z,20.10
2017-08-20T13:22:46.638Z,20.00
2017-08-20T13:25:14.148Z,19.90
2017-08-20T13:27:41.660Z,19.60
2017-08-20T13:30:09.953Z,19.60
2017-08-20T13:32:37.479Z,19.70
2017-08-20T13:35:05.105Z,19.80
2017-08-20T13:37:32.875Z,19.90
2017-08-20T13:40:00.408Z,20.10
2017-08-20T13:42:27.965Z,20.20
2017-08-20T13:44:55.857Z,20.30
2017-08-20T13:47:24.505Z,20.60
2017-08-20T13:49:52.268Z,20.60
2017-08-20T13:52:19.815Z,20.80
2017-08-20T13:54:49.050Z,20.70
2017-08-20T13:57:17.069Z,20.70
2017-08-20T13:59:44.571Z,20.50
2017-08-20T14:02:12.063Z,20.40
2017-08-20T14:04:39.839Z,20.40
2017-08-20T14:07:07.699Z,20.50
2017-08-20T14:09:35.206Z,20.50
2017-08-20T14:12:02.787Z,20.60
2017-08-20T14:14:30.325Z,20.40
2017-08-20T14:16:58.094Z,20.30
2017-08-20T14:19:27.279Z,20.50
2017-08-20T14:21:54.776Z,20.60
2017-08-20T14:24:22.508Z,20.60
2017-08-20T14:26:50.017Z,20.30
2017-08-20T14:29:19.563Z,20.30
2017-08-20T14:31:47.090Z,20.50
2017-08-20T14:34:14.625Z,20.50
2017-08-20T14:36:42.139Z,20.60
2017-08-20T14:39:11.311Z,20.60
2017-08-20T14:41:38.822Z,20.40
2017-08-20T14:44:06.356Z,20.30
2017-08-20T14:46:33.907Z,20.30
2017-08-20T14:49:01.448Z,20.30
2017-08-20T14:51:29.924Z,20.30
2017-08-20T14:53:57.842Z,20.20
2017-08-20T14:56:25.417Z,20.20
2017-08-20T14:58:53.032Z,20.20
2017-08-20T15:01:20.763Z,20.30
2017-08-20T15:03:48.557Z,20.30
2017-08-20T15:06:16.070Z,20.30
2017-08-20T15:08:43.785Z,20.20
2017-08-20T15:11:11.339Z,20.20
2017-08-20T15:13:38.964Z,20.20
2017-08-20T15:16:07.741Z,20.10
2017-08-20T15:18:35.249Z,19.90
2017-08-20T15:21:03.855Z,20.10
2017-08-20T15:23:32.290Z,20.10
2017-08-20T15:25:59.806Z,20.30
2017-08-20T15:28:27.307Z,20.20
2017-08-20T15:30:55.664Z,20.10
2017-08-20T15:33:23.176Z,20.10
2017-08-20T15:35:51.403Z,20.00
2017-08-20T15:38:19.163Z,20.00
2017-08-20T15:40:46.662Z,20.10
2017-08-20T15:43:14.169Z,20.20
2017-08-20T15:45:45.202Z,20.20
2017-08-20T15:48:12.718Z,20.30
2017-08-20T15:50:41.679Z,20.60
2017-08-20T15:53:09.207Z,20.60
2017-08-20T15:55:36.743Z,20.60
2017-08-20T15:58:04.248Z,20.40
2017-08-20T16:00:31.753Z,20.30
2017-08-20T16:03:00.747Z,20.40
2017-08-20T16:05:28.552Z,20.40
2017-08-20T16:07:56.055Z,20.50
2017-08-20T16:10:23.568Z,20.40
2017-08-20T16:12:51.239Z,20.50
2017-08-20T16:15:19.012Z,20.50
2017-08-20T16:17:50.137Z,20.30
2017-08-20T16:20:17.636Z,20.20
2017-08-20T16:22:45.354Z,20.10
2017-08-20T16:25:13.791Z,20.10
2017-08-20T16:27:41.301Z,20.10
2017-08-20T16:30:08.833Z,20.10
2017-08-20T16:32:36.376Z,20.10
2017-08-20T16:35:04.644Z,20.00
2017-08-20T16:37:32.207Z,19.90
2017-08-20T16:39:59.911Z,19.80
2017-08-20T16:42:27.847Z,19.80
2017-08-20T16:44:56.177Z,19.80
2017-08-20T16:47:23.720Z,19.70
2017-08-20T16:49:52.200Z,19.60
2017-08-20T16:52:19.739Z,19.50
2017-08-20T16:54:47.334Z,19.40
2017-08-20T16:57:15.289Z,19.40
2017-08-20T16:59:42.826Z,19.90
2017-08-20T17:02:10.391Z,20.40
2017-08-20T17:04:37.963Z,20.40
2017-08-20T17:07:06.188Z,20.40
2017-08-20T17:09:33.909Z,20.40
2017-08-20T17:12:01.556Z,20.40
2017-08-20T17:14:29.308Z,20.60
2017-08-20T17:16:57.018Z,20.40
2017-08-20T17:19:25.230Z,20.40
2017-08-20T17:21:53.505Z,20.60
2017-08-20T17:24:21.071Z,20.60
2017-08-20T17:26:50.261Z,20.60
2017-08-20T17:29:17.768Z,20.50
2017-08-20T17:31:47.181Z,20.30
2017-08-20T17:34:15.084Z,20.10
2017-08-20T17:36:42.591Z,20.00
2017-08-20T17:39:10.095Z,19.90
2017-08-20T17:41:37.644Z,19.90
2017-08-20T17:44:05.515Z,19.90
2017-08-20T17:46:37.020Z,19.70
2017-08-20T17:49:04.527Z,19.50
2017-08-20T17:51:32.075Z,19.30
2017-08-20T17:53:59.607Z,19.20
2017-08-20T17:56:27.423Z,19.10
2017-08-20T17:58:54.935Z,18.90
2017-08-20T18:01:23.940Z,18.50
2017-08-20T18:03:51.488Z,18.50
2017-08-20T18:06:19.219Z,18.10
2017-08-20T18:08:46.779Z,17.90
2017-08-20T18:11:14.328Z,17.60
2017-08-20T18:13:43.299Z,17.30
2017-08-20T18:16:11.379Z,17.30
2017-08-20T18:18:38.879Z,17.10
2017-08-20T18:21:07.111Z,16.90
2017-08-20T18:23:34.609Z,16.70
2017-08-20T18:26:02.112Z,16.60
2017-08-20T18:28:29.703Z,16.50
2017-08-20T18:30:57.204Z,16.50
2017-08-20T18:33:24.716Z,16.40
2017-08-20T18:35:52.260Z,16.30
2017-08-20T18:38:19.844Z,16.20
2017-08-20T18:40:47.552Z,16.10
2017-08-20T18:43:15.308Z,16.00
2017-08-20T18:45:42.824Z,15.90
2017-08-20T18:48:10.620Z,15.80
2017-08-20T18:50:38.121Z,15.60
2017-08-20T18:53:05.920Z,15.50
2017-08-20T18:55:34.155Z,15.40
2017-08-20T18:58:01.665Z,15.30
2017-08-20T19:00:29.219Z,15.20
2017-08-20T19:02:56.734Z,15.10
2017-08-20T19:05:24.257Z,15.00
2017-08-20T19:07:52.004Z,14.90
2017-08-20T19:10:20.052Z,14.70
2017-08-20T19:12:48.116Z,14.60
2017-08-20T19:15:15.917Z,14.50
2017-08-20T19:17:46.769Z,14.40
2017-08-20T19:20:14.767Z,14.30
2017-08-20T19:22:43.118Z,14.20
2017-08-20T19:25:10.660Z,14.10
2017-08-20T19:27:38.669Z,14.00
2017-08-20T19:30:06.183Z,14.00
2017-08-20T19:32:41.019Z,14.10
2017-08-20T19:35:13.388Z,14.10
2017-08-20T19:37:41.167Z,14.10
2017-08-20T19:40:09.172Z,14.00
2017-08-20T19:42:36.678Z,13.80
2017-08-20T19:45:04.862Z,13.70
2017-08-20T19:47:36.392Z,13.50
2017-08-20T19:50:03.955Z,13.50
2017-08-20T19:52:31.679Z,13.40
2017-08-20T19:54:59.199Z,13.30
2017-08-20T19:57:26.751Z,13.30
2017-08-20T19:59:54.255Z,13.30
2017-08-20T20:02:23.201Z,13.20
2017-08-20T20:04:54.850Z,13.20
2017-08-20T20:07:23.783Z,13.10
2017-08-20T20:09:51.303Z,13.00
2017-08-20T20:12:19.064Z,12.90
2017-08-20T20:14:46.568Z,12.90
2017-08-20T20:17:14.119Z,12.80
2017-08-20T20:19:42.067Z,12.80
2017-08-20T20:22:09.576Z,12.80
2017-08-20T20:24:37.881Z,12.70
2017-08-20T20:27:05.520Z,12.70
2017-08-20T20:29:33.024Z,12.70
2017-08-20T20:32:00.566Z,12.70
2017-08-20T20:34:28.642Z,12.60
2017-08-20T20:36:58.489Z,12.60
2017-08-20T20:39:26.957Z,12.60
2017-08-20T20:41:54.933Z,12.60
2017-08-20T20:44:22.463Z,12.50
2017-08-20T20:46:49.987Z,12.50
2017-08-20T20:49:21.600Z,12.40
2017-08-20T20:51:49.748Z,12.40
2017-08-20T20:54:18.143Z,12.40
2017-08-20T20:56:45.660Z,12.30
2017-08-20T20:59:13.980Z,12.30
2017-08-20T21:01:42.478Z,12.30
2017-08-20T21:04:11.211Z,12.20
2017-08-20T21:06:40.244Z,12.20
2017-08-20T21:09:08.075Z,12.10
2017-08-20T21:11:36.348Z,12.10
2017-08-20T21:14:03.852Z,12.00
2017-08-20T21:16:31.363Z,12.10
2017-08-20T21:18:59.820Z,12.20
2017-08-20T21:21:27.330Z,12.30
2017-08-20T21:23:54.831Z,12.50
2017-08-20T21:26:22.372Z,12.60
2017-08-20T21:28:49.926Z,12.70
2017-08-20T21:31:17.459Z,12.70
2017-08-20T21:33:45.214Z,12.70
2017-08-20T21:36:16.267Z,12.70
2017-08-20T21:38:44.334Z,12.60
2017-08-20T21:41:11.890Z,12.50
2017-08-20T21:43:39.447Z,12.50
2017-08-20T21:46:06.969Z,12.40
2017-08-20T21:48:37.402Z,12.30
2017-08-20T21:51:05.866Z,12.30
2017-08-20T21:53:33.393Z,12.30
2017-08-20T21:56:00.932Z,12.30
2017-08-20T21:58:29.207Z,12.30
2017-08-20T22:00:56.716Z,12.30
2017-08-20T22:03:25.027Z,12.20
2017-08-20T22:05:53.199Z,12.20
2017-08-20T22:08:20.818Z,12.20
2017-08-20T22:10:48.321Z,12.10
2017-08-20T22:13:16.115Z,12.00
2017-08-20T22:15:43.636Z,12.00
2017-08-20T22:18:11.960Z,12.00
2017-08-20T22:20:40.420Z,11.90
2017-08-20T22:23:08.082Z,11.80
2017-08-20T22:25:37.191Z,11.80
2017-08-20T22:28:05.476Z,11.80
2017-08-20T22:30:32.991Z,11.70
2017-08-20T22:33:01.000Z,11.70
2017-08-20T22:35:28.766Z,11.60
2017-08-20T22:37:57.391Z,11.50
2017-08-20T22:40:25.399Z,11.60
2017-08-20T22:42:53.524Z,11.50
2017-08-20T22:45:22.114Z,11.50
2017-08-20T22:47:50.264Z,11.50
2017-08-20T22:50:17.848Z,11.40
2017-08-20T22:52:51.082Z,11.30
2017-08-20T22:55:20.521Z,11.30
2017-08-20T22:57:48.015Z,11.30
2017-08-20T23:00:15.517Z,11.30
2017-08-20T23:02:43.063Z,11.30
2017-08-20T23:05:10.559Z,11.30
2017-08-20T23:07:38.071Z,11.30
2017-08-20T23:10:05.579Z,11.30
2017-08-20T23:12:33.091Z,11.30
2017-08-20T23:15:00.651Z,11.30
2017-08-20T23:17:29.295Z,11.30
2017-08-20T23:19:56.820Z,11.40
2017-08-20T23:22:24.331Z,11.40
2017-08-20T23:24:51.839Z,11.40
2017-08-20T23:27:19.706Z,11.40
2017-08-20T23:29:47.855Z,11.40
2017-08-20T23:32:15.884Z,11.40
2017-08-20T23:34:43.432Z,11.40
2017-08-20T23:37:11.711Z,11.40
2017-08-20T23:39:39.780Z,11.40
2017-08-20T23:42:07.282Z,11.40
2017-08-20T23:44:35.046Z,11.40
2017-08-20T23:47:03.058Z,11.60
2017-08-20T23:49:30.593Z,11.50
2017-08-20T23:51:58.095Z,11.50
2017-08-20T23:54:26.329Z,11.40
2017-08-20T23:56:53.845Z,11.40
2017-08-20T23:59:21.607Z,11.30
